Time;durP1;ratioP1;P1;durP2;ratioP2;P2;SDS_P1;SDS_P2;PMS_P1;PMS_P2;Temp;Humidity;BMP_temperature;BMP_pressure;BME280_temperature;BME280_humidity;BME280_pressure;Samples;Min_cycle;Max_cycle;Signal;HPM_P1;HPM_P2
2021/05/29 00:00:11;;;;;;;15.43;5.67;;;;;;;19.53;100.00;99325.33;1756936;82;21045;-75
2021/05/29 00:02:38;;;;;;;12.60;5.50;;;;;;;19.52;100.00;99326.40;1756960;82;21034;-75
2021/05/29 00:05:06;;;;;;;10.10;5.05;;;;;;;19.50;100.00;99323.63;1757010;82;21535;-73
2021/05/29 00:07:33;;;;;;;12.45;5.60;;;;;;;19.48;100.00;99318.39;1756850;82;21053;-74
2021/05/29 00:10:00;;;;;;;14.07;5.25;;;;;;;19.46;100.00;99326.03;1688893;83;20998;-74
2021/05/29 00:12:27;;;;;;;13.83;5.28;;;;;;;19.44;100.00;99319.11;1702450;84;21085;-74
2021/05/29 00:14:55;;;;;;;12.35;4.85;;;;;;;19.42;100.00;99318.53;1756265;81;21610;-75
2021/05/29 00:17:24;;;;;;;14.25;5.20;;;;;;;19.41;100.00;99317.71;1756882;81;21058;-74
2021/05/29 00:19:50;;;;;;;12.23;5.00;;;;;;;19.39;100.00;99313.53;1756553;81;21026;-74
2021/05/29 00:22:17;;;;;;;10.15;4.50;;;;;;;19.38;100.00;99311.34;1757071;81;21042;-73
2021/05/29 00:24:44;;;;;;;18.80;4.95;;;;;;;19.37;100.00;99308.33;1689950;83;21097;-73
2021/05/29 00:27:10;;;;;;;11.18;4.67;;;;;;;19.39;100.00;99303.42;1756816;81;20986;-74
2021/05/29 00:29:37;;;;;;;10.13;4.25;;;;;;;19.40;100.00;99302.88;1753319;82;21026;-74
2021/05/29 00:32:06;;;;;;;10.75;4.80;;;;;;;19.41;100.00;99296.33;1695061;83;21109;-73
2021/05/29 00:34:32;;;;;;;11.97;4.72;;;;;;;19.40;100.00;99289.99;1696179;84;21074;-73
2021/05/29 00:36:59;;;;;;;11.18;4.45;;;;;;;19.41;100.00;99297.16;1761673;81;21539;-73
2021/05/29 00:39:26;;;;;;;10.35;4.58;;;;;;;19.40;100.00;99296.84;1696172;84;21102;-73
2021/05/29 00:41:53;;;;;;;9.03;4.20;;;;;;;19.42;100.00;99292.49;1696041;84;21030;-73
2021/05/29 00:44:19;;;;;;;9.80;4.28;;;;;;;19.42;100.00;99282.90;1762014;81;21504;-74
2021/05/29 00:46:46;;;;;;;8.55;4.00;;;;;;;19.40;100.00;99288.62;1696350;84;21062;-74
2021/05/29 00:49:13;;;;;;;10.60;4.35;;;;;;;19.39;100.00;99283.38;1761522;80;21037;-74
2021/05/29 00:51:42;;;;;;;10.03;4.65;;;;;;;19.35;100.00;99285.27;1695917;84;21110;-75
2021/05/29 00:54:10;;;;;;;12.00;4.72;;;;;;;19.32;100.00;99289.87;1761715;81;21026;-75
2021/05/29 00:56:37;;;;;;;11.95;4.67;;;;;;;19.30;100.00;99299.40;1740739;81;21017;-74
2021/05/29 00:59:04;;;;;;;13.72;4.95;;;;;;;19.28;100.00;99311.16;1761801;81;21065;-74
2021/05/29 01:01:31;;;;;;;11.70;5.97;;;;;;;19.27;100.00;99315.81;1761785;81;21487;-75
2021/05/29 01:03:58;;;;;;;16.87;7.47;;;;;;;19.25;100.00;99318.52;1696263;84;21090;-75
2021/05/29 01:06:25;;;;;;;18.35;7.92;;;;;;;19.19;100.00;99320.30;1761574;81;21571;-74
2021/05/29 01:08:52;;;;;;;14.38;7.20;;;;;;;19.14;100.00;99321.58;1696366;84;21556;-74
2021/05/29 01:11:20;;;;;;;20.35;7.80;;;;;;;19.09;100.00;99329.73;1761605;80;21053;-72
2021/05/29 01:13:47;;;;;;;19.27;9.28;;;;;;;19.04;100.00;99335.92;1696195;84;21559;-73
2021/05/29 01:18:51;;;;;;;20.12;9.58;;;;;;;19.02;100.00;99342.73;1677627;84;21045;-73
2021/05/29 01:21:17;;;;;;;23.65;10.15;;;;;;;18.98;100.00;99347.84;1612964;88;21533;-73
2021/05/29 01:23:46;;;;;;;21.37;9.50;;;;;;;18.92;100.00;99346.91;1673176;85;21145;-73
2021/05/29 01:26:12;;;;;;;24.37;10.48;;;;;;;18.86;100.00;99349.27;1672985;86;21041;-74
2021/05/29 01:28:39;;;;;;;19.37;9.68;;;;;;;18.81;100.00;99351.05;1666544;86;21061;-73
2021/05/29 01:31:09;;;;;;;21.15;9.38;;;;;;;18.73;100.00;99350.34;1676309;85;21112;-74
2021/05/29 01:33:37;;;;;;;20.45;9.45;;;;;;;18.68;100.00;99341.16;1683332;85;21061;-74
2021/05/29 01:36:07;;;;;;;22.30;8.90;;;;;;;18.62;100.00;99341.59;1683149;85;21033;-74
2021/05/29 01:38:36;;;;;;;20.88;9.03;;;;;;;18.58;100.00;99341.25;1650106;87;21064;-74
2021/05/29 01:41:06;;;;;;;18.02;8.93;;;;;;;18.55;100.00;99347.74;1650186;87;21084;-74
2021/05/29 01:43:45;;;;;;;18.07;9.45;;;;;;;18.52;100.00;99344.96;1650171;87;21037;-74
2021/05/29 01:46:14;;;;;;;16.93;9.15;;;;;;;18.49;100.00;99348.72;1650269;87;21089;-73
2021/05/29 01:48:44;;;;;;;17.52;9.13;;;;;;;18.43;100.00;99340.08;1650126;87;21539;-73
2021/05/29 01:51:10;;;;;;;19.37;8.40;;;;;;;18.38;100.00;99343.55;1650050;87;21076;-74
2021/05/29 01:53:37;;;;;;;18.12;8.78;;;;;;;18.34;100.00;99338.23;1650046;87;21096;-74
2021/05/29 01:56:05;;;;;;;21.25;9.20;;;;;;;18.32;100.00;99341.76;1665631;85;21101;-75
2021/05/29 01:58:33;;;;;;;18.07;9.18;;;;;;;18.30;100.00;99346.64;1678474;85;21049;-74
2021/05/29 02:00:59;;;;;;;20.65;9.70;;;;;;;18.29;100.00;99343.08;1678156;85;21052;-74
2021/05/29 02:03:26;;;;;;;20.68;9.75;;;;;;;18.26;100.00;99335.34;1678230;85;21598;-73
2021/05/29 02:05:53;;;;;;;22.37;10.58;;;;;;;18.27;100.00;99338.36;1678357;85;21053;-74
2021/05/29 02:08:20;;;;;;;22.55;10.68;;;;;;;18.26;100.00;99323.03;1678310;85;21028;-75
2021/05/29 02:10:47;;;;;;;20.85;11.38;;;;;;;18.27;100.00;99315.09;1678305;85;21616;-73
2021/05/29 02:13:29;;;;;;;19.95;9.75;;;;;;;18.26;100.00;99316.19;1678299;85;21108;-72
2021/05/29 02:15:56;;;;;;;20.17;8.35;;;;;;;18.24;100.00;99321.58;1678298;85;21617;-73
2021/05/29 02:18:23;;;;;;;17.25;8.75;;;;;;;18.20;100.00;99321.23;1678219;85;21096;-71
2021/05/29 02:20:54;;;;;;;15.43;8.03;;;;;;;18.13;100.00;99318.64;1678169;85;21192;-71
2021/05/29 02:23:25;;;;;;;17.98;7.80;;;;;;;18.07;100.00;99326.95;1678392;85;21089;-72
2021/05/29 02:25:56;;;;;;;17.15;8.00;;;;;;;18.00;100.00;99325.70;1657339;86;21124;-73
2021/05/29 02:28:23;;;;;;;16.65;7.97;;;;;;;17.94;100.00;99333.50;1652337;85;21149;-72
2021/05/29 02:30:50;;;;;;;23.75;8.48;;;;;;;17.85;100.00;99328.88;1689922;84;20996;-73
2021/05/29 02:33:17;;;;;;;15.97;8.07;;;;;;;17.80;100.00;99328.75;1689670;85;21564;-73
2021/05/29 02:35:44;;;;;;;20.35;7.62;;;;;;;17.73;100.00;99320.65;1728338;82;21044;-73
2021/05/29 02:38:10;;;;;;;16.30;7.67;;;;;;;17.72;100.00;99320.88;1748319;82;21063;-72
2021/05/29 02:40:37;;;;;;;17.05;7.50;;;;;;;17.73;100.00;99327.48;1748398;82;21043;-73
2021/05/29 02:43:04;;;;;;;18.52;8.25;;;;;;;17.73;100.00;99320.65;1747910;82;21573;-73
2021/05/29 02:45:31;;;;;;;18.73;9.08;;;;;;;17.74;100.00;99326.94;1748219;82;21063;-73
2021/05/29 02:47:58;;;;;;;21.23;9.80;;;;;;;17.74;100.00;99314.64;1748040;82;21020;-72
2021/05/29 02:50:25;;;;;;;21.37;9.10;;;;;;;17.77;100.00;99325.11;1748138;82;21115;-73
2021/05/29 02:52:52;;;;;;;21.45;9.70;;;;;;;17.83;100.00;99335.95;1748122;82;21588;-73
2021/05/29 02:55:22;;;;;;;23.92;10.03;;;;;;;17.89;100.00;99332.00;1748261;82;21032;-72
2021/05/29 02:57:51;;;;;;;23.52;11.70;;;;;;;17.94;100.00;99321.19;1748043;82;21125;-73
2021/05/29 03:00:21;;;;;;;23.83;10.90;;;;;;;17.98;100.00;99319.64;1747898;82;21068;-73
2021/05/29 03:02:48;;;;;;;27.30;10.63;;;;;;;18.04;100.00;99310.47;1748062;82;21541;-72
2021/05/29 03:05:16;;;;;;;21.52;11.08;;;;;;;18.12;100.00;99309.30;1748034;82;21016;-72
2021/05/29 03:07:45;;;;;;;23.52;11.38;;;;;;;18.20;100.00;99308.92;1748258;82;21016;-72
2021/05/29 03:10:13;;;;;;;24.47;11.75;;;;;;;18.27;100.00;99310.17;1748285;82;21027;-73
2021/05/29 03:12:40;;;;;;;26.95;12.65;;;;;;;18.31;100.00;99301.77;1747990;82;21063;-72
2021/05/29 03:15:10;;;;;;;28.77;14.05;;;;;;;18.34;100.00;99303.52;1748141;82;21517;-74
2021/05/29 03:17:37;;;;;;;25.00;11.75;;;;;;;18.38;100.00;99305.23;1748057;82;21040;-74
2021/05/29 03:20:05;;;;;;;20.57;10.60;;;;;;;18.39;100.00;99308.25;1748160;82;21012;-74
2021/05/29 03:22:33;;;;;;;21.42;9.63;;;;;;;18.39;100.00;99297.30;1753228;81;21072;-72
2021/05/29 03:25:00;;;;;;;21.15;8.88;;;;;;;18.38;100.00;99291.01;1758329;81;21553;-74
2021/05/29 03:27:26;;;;;;;21.57;9.53;;;;;;;18.38;100.00;99297.03;1758392;81;21499;-74
2021/05/29 03:29:54;;;;;;;29.37;11.18;;;;;;;18.38;100.00;99303.33;1741959;81;21024;-74
2021/05/29 03:32:20;;;;;;;22.37;10.48;;;;;;;18.39;100.00;99303.60;1732976;80;21069;-74
2021/05/29 03:34:47;;;;;;;23.05;10.72;;;;;;;18.45;100.00;99305.08;1733125;83;21053;-74
2021/05/29 03:37:14;;;;;;;23.47;11.28;;;;;;;18.53;100.00;99301.44;1733029;83;21084;-75
2021/05/29 03:39:43;;;;;;;23.12;11.38;;;;;;;18.61;100.00;99293.41;1732986;82;21063;-74
2021/05/29 03:42:10;;;;;;;25.60;12.82;;;;;;;18.68;100.00;99294.62;1733137;83;21138;-74
2021/05/29 03:44:37;;;;;;;26.57;12.33;;;;;;;18.72;100.00;99288.42;1733055;83;21662;-74
2021/05/29 03:47:05;;;;;;;23.00;11.50;;;;;;;18.76;100.00;99288.22;1733124;82;21025;-75
2021/05/29 03:49:32;;;;;;;20.72;9.35;;;;;;;18.79;100.00;99286.38;1733185;82;21533;-75
2021/05/29 03:51:59;;;;;;;20.92;8.78;;;;;;;18.84;100.00;99289.80;1733017;83;21559;-75
2021/05/29 03:54:25;;;;;;;18.27;8.40;;;;;;;18.88;100.00;99295.07;1733201;82;21041;-75
2021/05/29 03:56:52;;;;;;;18.75;8.60;;;;;;;18.93;100.00;99292.98;1733210;83;21037;-74
2021/05/29 03:59:20;;;;;;;19.20;8.58;;;;;;;18.97;100.00;99296.89;1733138;83;21028;-74
2021/05/29 04:01:47;;;;;;;17.60;7.80;;;;;;;19.03;100.00;99290.41;1733067;82;21518;-74
2021/05/29 04:04:13;;;;;;;14.97;7.27;;;;;;;19.11;100.00;99289.21;1733162;82;21048;-74
2021/05/29 04:06:40;;;;;;;17.73;7.53;;;;;;;19.22;100.00;99288.31;1733152;82;21065;-74
2021/05/29 04:09:08;;;;;;;15.38;6.90;;;;;;;19.30;100.00;99280.21;1732938;83;21033;-75
2021/05/29 04:11:35;;;;;;;14.83;6.85;;;;;;;19.37;100.00;99271.32;1733224;83;21061;-73
2021/05/29 04:14:02;;;;;;;17.15;7.47;;;;;;;19.44;100.00;99271.99;1733242;82;20977;-75
2021/05/29 04:16:30;;;;;;;16.32;7.03;;;;;;;19.53;100.00;99273.23;1733086;83;21017;-73
2021/05/29 04:18:58;;;;;;;17.27;7.05;;;;;;;19.64;100.00;99261.89;1733110;83;21081;-74
2021/05/29 04:21:26;;;;;;;15.25;6.95;;;;;;;19.73;100.00;99262.31;1733111;83;21069;-74
2021/05/29 04:23:53;;;;;;;17.40;6.90;;;;;;;19.80;100.00;99271.78;1733273;83;21068;-74
2021/05/29 04:26:21;;;;;;;15.80;7.08;;;;;;;19.85;100.00;99263.08;1732980;83;21097;-75
2021/05/29 04:28:48;;;;;;;17.73;6.90;;;;;;;19.92;100.00;99260.17;1732851;81;21018;-74
2021/05/29 04:31:15;;;;;;;14.38;6.17;;;;;;;20.01;100.00;99262.77;1696378;84;21101;-74
2021/05/29 04:33:44;;;;;;;16.57;6.55;;;;;;;20.13;100.00;99261.27;1761737;81;21065;-74
2021/05/29 04:36:10;;;;;;;15.45;6.12;;;;;;;20.14;100.00;99260.20;1696465;84;21042;-74
2021/05/29 04:38:37;;;;;;;14.13;5.97;;;;;;;20.15;100.00;99263.25;1761837;81;21033;-74
2021/05/29 04:41:04;;;;;;;12.25;5.97;;;;;;;20.20;100.00;99257.83;1761836;81;21049;-75
2021/05/29 04:43:30;;;;;;;17.35;6.47;;;;;;;20.33;100.00;99270.34;1696422;84;21082;-75
2021/05/29 04:45:57;;;;;;;16.17;6.50;;;;;;;20.47;100.00;99263.95;1761744;81;21034;-75
2021/05/29 04:48:25;;;;;;;13.68;6.65;;;;;;;20.68;100.00;99260.91;1761738;81;21089;-75
2021/05/29 04:53:39;;;;;;;14.68;6.45;;;;;;;21.15;100.00;99258.14;1761900;81;21053;-74
2021/05/29 04:56:06;;;;;;;12.95;5.78;;;;;;;21.34;100.00;99252.55;1761841;81;21049;-75
2021/05/29 04:58:33;;;;;;;14.75;5.90;;;;;;;21.48;100.00;99246.63;1761681;81;21078;-74
2021/05/29 05:01:00;;;;;;;14.60;6.10;;;;;;;21.64;100.00;99250.33;1761676;81;21548;-74
2021/05/29 05:03:26;;;;;;;13.32;6.10;;;;;;;21.74;100.00;99255.39;1761638;81;20998;-73
2021/05/29 05:05:53;;;;;;;13.20;6.00;;;;;;;21.92;100.00;99251.39;1696456;84;21069;-73
2021/05/29 05:08:21;;;;;;;11.55;5.70;;;;;;;22.06;100.00;99255.89;1696324;84;21075;-74
2021/05/29 05:10:49;;;;;;;12.47;6.25;;;;;;;22.22;100.00;99254.58;1696394;84;21611;-74
2021/05/29 05:13:16;;;;;;;12.00;6.00;;;;;;;22.44;100.00;99248.95;1761559;81;21077;-74
2021/05/29 05:15:44;;;;;;;16.27;5.87;;;;;;;22.63;100.00;99246.00;1696253;84;21102;-72
2021/05/29 05:18:10;;;;;;;18.35;8.35;;;;;;;22.80;100.00;99240.81;1696461;84;21077;-72
2021/05/29 05:20:37;;;;;;;16.73;7.10;;;;;;;22.88;100.00;99234.22;1761804;81;21023;-74
2021/05/29 05:23:04;;;;;;;17.15;7.03;;;;;;;23.11;100.00;99238.98;1761775;81;21014;-74
2021/05/29 05:25:32;;;;;;;17.27;6.70;;;;;;;23.42;100.00;99239.00;1761518;81;21093;-72
2021/05/29 05:28:00;;;;;;;17.32;6.50;;;;;;;23.68;100.00;99232.94;1758171;81;21069;-73
2021/05/29 05:30:27;;;;;;;12.00;4.78;;;;;;;23.82;100.00;99229.91;1760096;81;21009;-74
2021/05/29 05:32:58;;;;;;;16.37;7.62;;;;;;;23.86;100.00;99230.18;1763324;80;21104;-73
2021/05/29 05:35:25;;;;;;;16.62;10.63;;;;;;;23.81;100.00;99230.19;1711035;84;21037;-73
2021/05/29 05:37:52;;;;;;;18.87;10.98;;;;;;;23.54;100.00;99229.91;1763444;81;21021;-75
2021/05/29 05:40:19;;;;;;;14.47;6.22;;;;;;;23.25;100.00;99233.77;1763408;81;21551;-74
2021/05/29 05:42:45;;;;;;;12.47;5.90;;;;;;;23.01;100.00;99236.99;1764079;81;21319;-74
2021/05/29 05:45:13;;;;;;;11.90;5.60;;;;;;;22.86;100.00;99235.58;1763486;81;21006;-75
2021/05/29 05:47:39;;;;;;;14.50;5.40;;;;;;;22.84;100.00;99235.02;1763469;81;21017;-74
2021/05/29 05:50:08;;;;;;;16.42;5.47;;;;;;;22.89;100.00;99237.23;1763988;81;21017;-75
2021/05/29 05:52:38;;;;;;;13.40;5.17;;;;;;;22.86;100.00;99234.20;1739148;81;21072;-74
2021/05/29 05:55:06;;;;;;;16.05;6.20;;;;;;;22.86;100.00;99232.81;1600989;89;21644;-74
2021/05/29 05:57:35;;;;;;;14.70;7.20;;;;;;;22.98;100.00;99229.27;1601792;88;21189;-71
2021/05/29 06:00:06;;;;;;;12.68;5.70;;;;;;;23.30;100.00;99223.56;1601525;88;21205;-73
2021/05/29 06:02:33;;;;;;;13.53;5.58;;;;;;;23.75;100.00;99216.09;1599574;89;21592;-74
2021/05/29 06:05:00;;;;;;;14.53;5.92;;;;;;;24.10;100.00;99208.85;1610936;88;21100;-73
2021/05/29 06:07:27;;;;;;;17.87;7.83;;;;;;;24.16;100.00;99208.56;1623715;88;21091;-73
2021/05/29 06:09:54;;;;;;;16.52;7.37;;;;;;;24.09;100.00;99210.80;1623775;88;21136;-75
2021/05/29 06:12:21;;;;;;;16.52;7.15;;;;;;;23.89;100.00;99214.45;1628499;88;21063;-74
2021/05/29 06:20:19;;;;;;;20.57;10.38;;;;;;;23.51;100.00;99207.00;1628797;88;21027;-76
2021/05/29 06:22:45;;;;;;;27.00;13.90;;;;;;;23.42;100.00;99207.28;1628609;88;21692;-75
2021/05/29 06:25:14;;;;;;;38.15;23.77;;;;;;;23.44;100.00;99210.06;1628818;88;21067;-73
2021/05/29 06:27:40;;;;;;;72.97;43.17;;;;;;;23.49;100.00;99208.65;1628858;87;21664;-77
2021/05/29 06:30:10;;;;;;;36.60;19.23;;;;;;;23.49;100.00;99218.30;1623864;88;21065;-75
2021/05/29 06:32:40;;;;;;;21.00;7.60;;;;;;;23.46;100.00;99223.02;1602976;87;21148;-73
2021/05/29 06:35:08;;;;;;;20.27;7.45;;;;;;;23.40;100.00;99220.53;1624242;87;21092;-75
2021/05/29 06:37:36;;;;;;;20.85;7.12;;;;;;;23.26;100.00;99216.11;1617569;88;21064;-76
2021/05/29 06:40:08;;;;;;;17.80;6.75;;;;;;;23.09;100.00;99213.06;1635825;87;21049;-74
2021/05/29 06:42:34;;;;;;;20.45;6.47;;;;;;;22.94;100.00;99214.38;1635197;87;21100;-75
2021/05/29 06:45:01;;;;;;;17.55;6.72;;;;;;;22.85;100.00;99210.51;1622439;87;21052;-75
2021/05/29 06:47:27;;;;;;;17.17;7.08;;;;;;;22.82;100.00;99208.29;1619381;88;21019;-79
2021/05/29 06:49:54;;;;;;;14.05;7.00;;;;;;;22.91;100.00;99207.50;1626889;86;21626;-72
2021/05/29 06:52:23;;;;;;;13.78;6.85;;;;;;;23.06;100.00;99206.71;1686420;83;21033;-74
2021/05/29 07:00:12;;;;;;;21.73;10.35;;;;;;;23.30;100.00;99208.40;1723708;83;21076;-75
2021/05/29 07:02:39;;;;;;;13.75;5.95;;;;;;;23.37;100.00;99208.09;1723398;83;21024;-73
2021/05/29 07:05:09;;;;;;;16.62;6.20;;;;;;;23.40;100.00;99210.31;1725863;82;21526;-74
2021/05/29 07:07:37;;;;;;;15.98;6.67;;;;;;;23.38;100.00;99211.70;1732681;83;21029;-74
2021/05/29 07:10:06;;;;;;;20.97;6.22;;;;;;;23.39;100.00;99217.48;1733452;83;21048;-75
2021/05/29 07:12:33;;;;;;;20.82;6.62;;;;;;;23.42;100.00;99218.31;1732486;83;21534;-77
2021/05/29 07:15:02;;;;;;;14.35;6.30;;;;;;;23.46;100.00;99214.74;1739325;81;21100;-75
2021/05/29 07:17:33;;;;;;;16.37;6.33;;;;;;;23.53;100.00;99221.90;1736422;81;21041;-75
2021/05/29 07:19:59;;;;;;;13.13;6.05;;;;;;;23.64;100.00;99215.29;1746003;81;21032;-76
2021/05/29 07:22:25;;;;;;;17.30;5.87;;;;;;;23.77;100.00;99201.46;1744580;81;21539;-76
2021/05/29 07:24:52;;;;;;;15.20;5.62;;;;;;;23.84;100.00;99190.98;1747444;81;21010;-76
2021/05/29 07:27:19;;;;;;;23.27;10.50;;;;;;;23.92;100.00;99190.96;1747012;81;21021;-76
2021/05/29 07:29:46;;;;;;;13.90;5.62;;;;;;;24.15;100.00;99186.75;1728315;81;21040;-78
2021/05/29 07:32:12;;;;;;;33.98;26.25;;;;;;;24.55;100.00;99188.55;1733259;83;21011;-75
2021/05/29 07:34:39;;;;;;;86.60;67.70;;;;;;;24.90;100.00;99188.07;1743074;81;21041;-77
2021/05/29 07:37:08;;;;;;;14.85;6.47;;;;;;;25.17;100.00;99185.39;1763664;81;21018;-74
2021/05/29 07:39:41;;;;;;;13.70;5.45;;;;;;;25.36;100.00;99177.25;1756945;81;21068;-77
2021/05/29 07:42:08;;;;;;;20.30;6.83;;;;;;;25.31;100.00;99173.14;1738806;81;21005;-74
2021/05/29 07:44:35;;;;;;;17.15;6.17;;;;;;;25.33;100.00;99169.52;1722372;81;21040;-73
2021/05/29 07:47:01;;;;;;;22.62;9.25;;;;;;;25.69;100.00;99169.17;1707680;83;21073;-73
2021/05/29 07:49:29;;;;;;;14.20;5.47;;;;;;;26.19;100.00;99165.62;1707693;84;21049;-74
2021/05/29 07:51:56;;;;;;;9.98;4.53;;;;;;;26.80;100.00;99161.20;1713029;81;21037;-75
2021/05/29 07:54:23;;;;;;;35.48;27.67;;;;;;;27.40;100.00;99163.90;1743034;81;21057;-75
2021/05/29 07:56:50;;;;;;;18.42;7.80;;;;;;;27.82;100.00;99147.57;1759096;81;21012;-76
2021/05/29 07:59:17;;;;;;;15.28;5.70;;;;;;;28.18;100.00;99145.48;1757351;81;21033;-74
2021/05/29 08:01:45;;;;;;;12.68;4.30;;;;;;;28.44;100.00;99143.56;1692290;84;21559;-74
2021/05/29 08:04:17;;;;;;;11.65;4.80;;;;;;;28.49;100.00;99134.27;1680720;84;21079;-74
2021/05/29 08:06:44;;;;;;;15.48;5.12;;;;;;;28.47;100.00;99129.59;1745341;81;21010;-74
2021/05/29 08:09:11;;;;;;;14.80;5.22;;;;;;;28.65;100.00;99136.16;1760784;81;21166;-73
2021/05/29 08:11:40;;;;;;;17.87;4.78;;;;;;;28.90;100.00;99130.02;1741914;81;21045;-78
2021/05/29 08:14:10;;;;;;;35.08;24.07;;;;;;;29.25;100.00;99122.50;1746639;81;21578;-77
2021/05/29 08:16:39;;;;;;;17.25;6.28;;;;;;;29.48;100.00;99125.52;1737382;81;21013;-77
2021/05/29 08:19:09;;;;;;;14.93;4.87;;;;;;;29.84;100.00;99136.30;1734964;81;21037;-76
2021/05/29 08:21:37;;;;;;;14.20;4.37;;;;;;;30.23;100.00;99124.28;1737218;81;21570;-76
2021/05/29 08:24:05;;;;;;;9.30;4.12;;;;;;;30.59;100.00;99124.60;1750097;81;21558;-77
2021/05/29 08:26:32;;;;;;;10.43;4.25;;;;;;;30.72;100.00;99125.62;1738920;81;21525;-78
2021/05/29 08:28:59;;;;;;;14.50;4.50;;;;;;;30.58;100.00;99127.16;1748817;81;20994;-76
2021/05/29 08:31:26;;;;;;;19.67;4.58;;;;;;;30.43;100.00;99123.45;1750343;81;21043;-77
2021/05/29 08:33:53;;;;;;;13.38;4.28;;;;;;;30.51;100.00;99118.46;1744944;81;21691;-78
2021/05/29 08:36:19;;;;;;;12.98;4.53;;;;;;;30.69;100.00;99119.29;1691536;84;21059;-78
2021/05/29 08:38:48;;;;;;;9.90;3.77;;;;;;;30.96;100.00;99111.77;1757914;81;21070;-77
2021/05/29 08:41:15;;;;;;;13.48;4.47;;;;;;;31.15;100.00;99110.02;1746570;81;21074;-76
2021/05/29 08:43:43;;;;;;;11.08;4.40;;;;;;;31.13;100.00;99104.77;1746595;82;21039;-75
2021/05/29 08:46:10;;;;;;;11.40;3.85;;;;;;;31.19;100.00;99106.22;1746180;81;21088;-76
2021/05/29 08:48:39;;;;;;;13.03;4.28;;;;;;;31.32;100.00;99103.56;1737138;82;21043;-76
2021/05/29 08:51:13;;;;;;;10.28;4.12;;;;;;;31.28;100.00;99094.22;1746127;81;21114;-76
2021/05/29 08:53:48;;;;;;;20.02;4.47;;;;;;;31.24;100.00;99091.27;1746278;82;21043;-77
2021/05/29 08:56:16;;;;;;;7.50;3.50;;;;;;;31.38;100.00;99088.28;1746175;82;21576;-76
2021/05/29 08:58:43;;;;;;;9.35;3.85;;;;;;;31.48;100.00;99085.10;1746213;81;21556;-77
2021/05/29 09:01:10;;;;;;;8.98;4.10;;;;;;;31.54;100.00;99081.02;1746628;82;21568;-77
2021/05/29 09:03:46;;;;;;;11.75;4.40;;;;;;;31.63;100.00;99082.39;1746418;82;21039;-77
2021/05/29 09:06:19;;;;;;;17.98;8.30;;;;;;;31.72;100.00;99083.75;1745436;81;21472;-74
2021/05/29 09:09:01;;;;;;;25.20;6.92;;;;;;;31.93;100.00;99087.42;1747291;81;21570;-76
2021/05/29 09:11:51;;;;;;;11.28;4.25;;;;;;;32.11;100.00;99088.75;1759195;81;20990;-75
2021/05/29 09:17:18;;;;;;;13.68;4.40;;;;;;;32.49;100.00;99094.26;1713737;82;21522;-75
2021/05/29 09:20:04;;;;;;;12.50;4.25;;;;;;;32.67;100.00;99083.77;1690574;82;21563;-74
2021/05/29 09:22:53;;;;;;;9.10;4.25;;;;;;;32.94;100.00;99083.55;1728628;82;21122;-76
2021/05/29 09:25:23;;;;;;;19.00;5.42;;;;;;;33.42;100.00;99077.27;1722659;82;21032;-76
2021/05/29 09:28:02;;;;;;;11.93;4.12;;;;;;;33.65;95.56;99082.45;1725847;82;21052;-76
2021/05/29 09:30:41;;;;;;;12.43;4.03;;;;;;;33.22;93.43;99076.75;1707438;83;21057;-74
2021/05/29 09:33:21;;;;;;;16.25;8.68;;;;;;;32.51;95.24;99078.50;1677346;85;21215;-78
2021/05/29 09:36:00;;;;;;;13.50;4.55;;;;;;;31.99;96.88;99076.86;1659699;85;21035;-76
2021/05/29 09:38:36;;;;;;;17.55;4.53;;;;;;;31.59;95.65;99080.03;1656647;87;21052;-77
2021/05/29 09:41:07;;;;;;;11.18;3.47;;;;;;;31.37;100.00;99078.25;1662291;85;21064;-77
2021/05/29 09:44:04;;;;;;;14.10;3.62;;;;;;;31.40;100.00;99077.59;1677090;85;21044;-79
2021/05/29 09:46:51;;;;;;;11.85;3.50;;;;;;;31.54;100.00;99076.83;1680484;85;21033;-78
2021/05/29 09:49:18;;;;;;;11.78;4.10;;;;;;;31.53;100.00;99075.77;1681245;85;21112;-78
2021/05/29 09:51:45;;;;;;;47.10;29.95;;;;;;;31.27;100.00;99076.66;1676618;85;21048;-77
2021/05/29 09:54:12;;;;;;;12.68;4.08;;;;;;;30.98;100.00;99083.75;1688824;85;21036;-76
2021/05/29 09:56:46;;;;;;;10.10;4.30;;;;;;;30.71;100.00;99077.12;1688999;85;21037;-74
2021/05/29 09:59:23;;;;;;;13.53;4.10;;;;;;;30.49;100.00;99070.53;1688752;85;21128;-76
2021/05/29 10:01:54;;;;;;;11.35;3.90;;;;;;;30.43;100.00;99065.69;1633069;88;21096;-76
2021/05/29 10:07:05;;;;;;;19.87;4.20;;;;;;;30.19;100.00;99067.54;1611588;88;21118;-75
2021/05/29 10:09:32;;;;;;;6.65;3.40;;;;;;;30.02;100.00;99061.34;1597585;90;21110;-74
2021/05/29 10:12:00;;;;;;;6.53;3.08;;;;;;;29.84;100.00;99057.70;1605210;88;21040;-78
2021/05/29 10:14:27;;;;;;;13.88;3.72;;;;;;;29.54;100.00;99048.23;1651535;86;21092;-79
2021/05/29 10:16:54;;;;;;;17.57;7.22;;;;;;;29.29;100.00;99055.33;1648123;86;21056;-81
2021/05/29 10:19:22;;;;;;;9.08;5.20;;;;;;;28.97;100.00;99052.48;1652184;86;21048;-77
2021/05/29 10:21:50;;;;;;;14.73;4.53;;;;;;;28.73;100.00;99052.80;1652981;86;21039;-75
2021/05/29 10:24:18;;;;;;;7.97;3.52;;;;;;;28.47;100.00;99056.73;1660452;86;21645;-75
2021/05/29 10:26:45;;;;;;;10.85;3.95;;;;;;;28.21;100.00;99044.01;1667305;84;21600;-75
2021/05/29 10:29:13;;;;;;;7.80;3.25;;;;;;;27.95;100.00;99038.19;1677212;85;21096;-76
2021/05/29 10:31:40;;;;;;;7.58;3.30;;;;;;;27.75;100.00;99043.59;1684607;85;21584;-75
2021/05/29 10:34:07;;;;;;;34.27;30.30;;;;;;;27.53;100.00;99036.77;1683774;84;21095;-75
2021/05/29 10:36:47;;;;;;;28.30;20.57;;;;;;;27.42;100.00;99034.77;1681191;85;21553;-75
2021/05/29 10:39:27;;;;;;;20.88;14.28;;;;;;;27.36;100.00;99035.20;1663449;85;21048;-76
2021/05/29 10:42:05;;;;;;;14.13;4.58;;;;;;;27.32;100.00;99033.60;1652042;87;21052;-75
2021/05/29 10:44:36;;;;;;;17.62;5.92;;;;;;;27.32;100.00;99035.53;1679566;85;21002;-78
2021/05/29 10:47:13;;;;;;;22.52;12.93;;;;;;;27.28;100.00;99036.71;1668153;85;21050;-75
2021/05/29 10:49:54;;;;;;;44.45;39.75;;;;;;;27.24;100.00;99040.63;1667675;85;21070;-78
2021/05/29 10:52:40;;;;;;;17.37;11.85;;;;;;;27.18;100.00;99037.70;1678707;85;21033;-76
2021/05/29 10:55:21;;;;;;;30.23;9.00;;;;;;;27.06;100.00;99045.70;1664601;85;21549;-78
2021/05/29 10:58:02;;;;;;;54.85;46.83;;;;;;;27.00;100.00;99047.74;1667910;83;21045;-78
2021/05/29 11:00:43;;;;;;;11.65;4.55;;;;;;;27.00;100.00;99044.12;1735854;81;21037;-75
2021/05/29 11:03:22;;;;;;;8.90;3.92;;;;;;;26.94;100.00;99035.08;1750190;81;21490;-77
2021/05/29 11:05:52;;;;;;;12.03;4.60;;;;;;;26.98;100.00;99035.29;1733613;82;20993;-77
2021/05/29 11:08:51;;;;;;;10.98;4.33;;;;;;;27.04;100.00;99033.52;1755679;81;21559;-76
2021/05/29 11:11:43;;;;;;;13.75;4.35;;;;;;;27.12;100.00;99030.59;1763069;81;21587;-75
2021/05/29 11:14:27;;;;;;;15.13;3.87;;;;;;;27.13;100.00;99030.86;1754129;81;21475;-75
2021/05/29 11:16:59;;;;;;;12.70;3.92;;;;;;;27.07;100.00;99027.36;1755582;81;21017;-74
2021/05/29 11:19:31;;;;;;;14.60;4.30;;;;;;;27.01;100.00;99021.63;1743105;81;21550;-74
2021/05/29 11:22:18;;;;;;;16.50;4.10;;;;;;;27.08;100.00;99018.47;1764061;81;21005;-74
2021/05/29 11:24:53;;;;;;;17.37;4.15;;;;;;;27.22;100.00;99017.11;1738292;81;21053;-72
2021/05/29 11:27:24;;;;;;;22.90;4.50;;;;;;;27.30;100.00;99018.37;1718318;83;21025;-74
2021/05/29 11:30:03;;;;;;;12.37;4.10;;;;;;;27.28;100.00;99016.71;1744705;81;21010;-73
2021/05/29 11:35:36;;;;;;;20.75;11.63;;;;;;;27.27;100.00;99010.11;1734383;81;21124;-77
2021/05/29 11:38:37;;;;;;;21.65;13.50;;;;;;;27.24;100.00;99007.34;1741137;81;21045;-78
2021/05/29 11:41:11;;;;;;;32.73;21.55;;;;;;;27.25;100.00;99008.14;1696739;84;21071;-79
2021/05/29 11:46:28;;;;;;;16.25;5.90;;;;;;;27.16;100.00;99012.77;1625654;87;21084;-76
2021/05/29 11:48:59;;;;;;;11.30;4.33;;;;;;;27.03;100.00;99011.05;1625457;87;21080;-76
2021/05/29 11:51:32;;;;;;;13.38;5.92;;;;;;;27.06;100.00;99005.47;1628151;87;21135;-78
2021/05/29 11:54:14;;;;;;;47.43;15.40;;;;;;;27.10;100.00;99000.95;1623868;87;21048;-76